createdAt,value
2022-12-25T00:00:47.100Z,2.48
2022-12-25T00:01:47.079Z,2.31
2022-12-25T00:02:47.133Z,2.49
2022-12-25T00:03:47.132Z,2.54
2022-12-25T00:04:47.029Z,2.58
2022-12-25T00:05:47.017Z,2.48
2022-12-25T00:06:47.000Z,2.76
2022-12-25T00:07:46.989Z,2.34
2022-12-25T00:08:47.000Z,2.66
2022-12-25T00:09:46.973Z,2.45
2022-12-25T00:10:46.949Z,2.38
2022-12-25T00:11:46.937Z,2.67
2022-12-25T00:12:46.957Z,2.51
2022-12-25T00:13:46.914Z,2.34
2022-12-25T00:14:46.905Z,2.50
2022-12-25T00:15:46.917Z,2.25
2022-12-25T00:16:46.933Z,2.48
2022-12-25T00:17:46.845Z,2.24
2022-12-25T00:18:46.843Z,2.26
2022-12-25T00:19:46.841Z,2.30
2022-12-25T00:20:46.813Z,2.64
2022-12-25T00:21:46.808Z,2.39
2022-12-25T00:22:46.791Z,2.50
2022-12-25T00:23:46.770Z,2.23
2022-12-25T00:24:46.760Z,2.24
2022-12-25T00:25:46.754Z,1.88
2022-12-25T00:26:46.757Z,2.03
2022-12-25T00:27:46.746Z,2.29
2022-12-25T00:28:46.726Z,2.58
2022-12-25T00:29:46.716Z,2.34
2022-12-25T00:30:46.716Z,2.36
2022-12-25T00:31:46.715Z,2.09
2022-12-25T00:32:46.689Z,2.92
2022-12-25T00:33:46.665Z,2.13
2022-12-25T00:34:46.673Z,2.51
2022-12-25T00:35:46.673Z,1.93
2022-12-25T00:36:46.665Z,2.47
2022-12-25T00:37:46.645Z,2.31
2022-12-25T00:38:46.630Z,2.43
2022-12-25T00:39:46.628Z,2.28
2022-12-25T00:40:46.614Z,1.98
2022-12-25T00:41:46.611Z,2.44
2022-12-25T00:42:46.606Z,2.51
2022-12-25T00:43:46.599Z,2.47
2022-12-25T00:44:46.584Z,2.27
2022-12-25T00:45:46.640Z,2.49
2022-12-25T00:46:46.600Z,2.55
2022-12-25T00:47:46.548Z,1.92
2022-12-25T00:48:46.552Z,2.15
2022-12-25T00:49:46.543Z,2.05
2022-12-25T00:50:46.540Z,2.04
2022-12-25T00:51:46.514Z,2.10
2022-12-25T00:52:46.493Z,1.83
2022-12-25T00:53:46.491Z,2.36
2022-12-25T00:54:46.484Z,2.41
2022-12-25T00:55:46.478Z,2.37
2022-12-25T00:56:46.465Z,2.36
2022-12-25T00:57:46.469Z,1.88
2022-12-25T00:58:46.458Z,2.31
2022-12-25T00:59:46.437Z,1.97
2022-12-25T01:00:46.495Z,1.81
2022-12-25T01:01:46.547Z,2.04
2022-12-25T01:02:46.571Z,1.73
2022-12-25T01:03:46.438Z,2.04
2022-12-25T01:04:46.412Z,1.96
2022-12-25T01:05:46.410Z,2.08
2022-12-25T01:06:46.412Z,2.09
2022-12-25T01:07:46.397Z,2.06
2022-12-25T01:08:46.384Z,2.15
2022-12-25T01:09:46.373Z,2.23
2022-12-25T01:10:46.370Z,1.96
2022-12-25T01:11:46.362Z,2.01
2022-12-25T01:12:46.344Z,2.02
2022-12-25T01:13:46.339Z,2.03
2022-12-25T01:14:46.309Z,2.03
2022-12-25T01:15:46.311Z,2.08
2022-12-25T01:16:46.335Z,2.02
2022-12-25T01:17:46.281Z,2.09
2022-12-25T01:18:46.268Z,2.22
2022-12-25T01:19:46.247Z,2.07
2022-12-25T01:20:46.234Z,2.00
2022-12-25T01:21:46.222Z,2.16
2022-12-25T01:22:46.219Z,2.42
2022-12-25T01:23:46.187Z,2.44
2022-12-25T01:24:46.172Z,2.28
2022-12-25T01:25:46.186Z,2.14
2022-12-25T01:26:46.158Z,2.46
2022-12-25T01:27:46.152Z,2.19
2022-12-25T01:28:46.126Z,2.24
2022-12-25T01:29:46.115Z,1.95
2022-12-25T01:30:46.100Z,1.91
2022-12-25T01:31:46.149Z,2.08
2022-12-25T01:32:46.073Z,2.35
2022-12-25T01:33:46.081Z,2.18
2022-12-25T01:34:49.326Z,2.13
2022-12-25T01:36:46.023Z,2.23
2022-12-25T01:37:46.012Z,2.26
2022-12-25T01:38:46.032Z,2.14
2022-12-25T01:39:46.024Z,2.24
2022-12-25T01:40:45.987Z,2.45
2022-12-25T01:41:45.975Z,2.09
2022-12-25T01:42:45.974Z,2.13
2022-12-25T01:43:45.945Z,1.97
2022-12-25T01:44:45.955Z,2.01
2022-12-25T01:45:45.991Z,2.19
2022-12-25T01:46:45.917Z,2.44
2022-12-25T01:47:45.922Z,2.08
2022-12-25T01:48:45.903Z,1.86
2022-12-25T01:49:45.871Z,2.12
2022-12-25T01:50:45.856Z,1.45
2022-12-25T01:51:45.839Z,2.67
2022-12-25T01:52:45.825Z,2.10
2022-12-25T01:53:45.826Z,2.15
2022-12-25T01:54:45.824Z,1.96
2022-12-25T01:55:45.808Z,2.03
2022-12-25T01:56:45.812Z,1.94
2022-12-25T01:57:45.780Z,1.60
2022-12-25T01:58:45.773Z,1.62
2022-12-25T01:59:45.754Z,2.47
2022-12-25T02:00:45.776Z,1.89
2022-12-25T02:01:46.051Z,1.76
2022-12-25T02:02:45.840Z,1.81
2022-12-25T02:03:45.710Z,1.79
2022-12-25T02:05:45.674Z,1.98
2022-12-25T02:06:45.660Z,2.01
2022-12-25T02:17:45.564Z,1.38
2022-12-25T03:38:50.133Z,1.43
2022-12-25T03:39:50.194Z,1.59
2022-12-25T03:40:50.249Z,1.42
2022-12-25T03:41:50.304Z,1.41
2022-12-25T03:42:50.336Z,1.38
2022-12-25T03:43:50.397Z,1.41
2022-12-25T03:44:50.444Z,1.30
2022-12-25T03:45:50.517Z,1.26
2022-12-25T03:46:50.555Z,1.43
2022-12-25T03:47:50.592Z,1.34
2022-12-25T03:48:50.651Z,1.08
2022-12-25T03:49:50.699Z,1.34
2022-12-25T03:50:50.760Z,1.34
2022-12-25T03:51:50.811Z,1.40
2022-12-25T03:52:50.834Z,1.25
2022-12-25T03:53:50.906Z,1.47
2022-12-25T03:54:50.933Z,1.29
2022-12-25T03:55:50.979Z,1.34
2022-12-25T03:56:51.060Z,1.21
2022-12-25T03:57:51.217Z,1.44
2022-12-25T03:58:51.253Z,1.66
2022-12-25T03:59:51.238Z,1.49
2022-12-25T04:00:51.238Z,1.19
2022-12-25T04:01:51.376Z,1.19
2022-12-25T04:02:51.460Z,1.19
2022-12-25T04:03:51.389Z,0.99
2022-12-25T04:04:51.424Z,1.39
2022-12-25T04:05:51.447Z,1.55
2022-12-25T10:17:51.450Z,2.16
2022-12-25T10:18:51.360Z,2.20
2022-12-25T10:19:51.354Z,2.24
2022-12-25T10:20:51.294Z,2.20
2022-12-25T10:21:51.258Z,2.12
2022-12-25T10:22:51.242Z,2.61
2022-12-25T10:23:51.212Z,2.00
2022-12-25T10:24:51.175Z,2.21
2022-12-25T10:25:51.175Z,2.26
2022-12-25T10:26:51.125Z,1.77
2022-12-25T10:27:51.098Z,2.22
2022-12-25T10:28:51.075Z,2.22
2022-12-25T10:29:51.054Z,2.35
2022-12-25T10:30:51.039Z,2.24
2022-12-25T10:31:50.993Z,2.40
2022-12-25T10:32:50.959Z,2.54
2022-12-25T10:33:50.956Z,2.11
2022-12-25T10:34:50.921Z,1.98
2022-12-25T10:35:50.904Z,2.07
2022-12-25T10:36:50.914Z,2.18
2022-12-25T10:37:50.836Z,2.33
2022-12-25T10:38:50.815Z,2.46
2022-12-25T10:39:50.787Z,2.66
2022-12-25T10:40:50.748Z,2.61
2022-12-25T10:41:50.730Z,1.86
2022-12-25T10:42:50.700Z,2.40
2022-12-25T10:43:50.706Z,2.32
2022-12-25T10:44:50.647Z,2.66
2022-12-25T10:45:50.627Z,2.12
2022-12-25T10:46:50.654Z,2.16
2022-12-25T10:47:59.534Z,2.16
2022-12-25T10:48:51.550Z,2.38
2022-12-25T10:49:50.497Z,2.20
2022-12-25T10:50:50.458Z,2.36
2022-12-25T10:51:50.423Z,1.87
2022-12-25T10:52:50.400Z,2.16
2022-12-25T10:53:50.357Z,2.27
2022-12-25T10:54:50.322Z,2.26
2022-12-25T10:55:50.293Z,2.11
2022-12-25T10:56:50.264Z,2.06
2022-12-25T10:57:50.236Z,2.24
2022-12-25T10:58:50.210Z,2.25
2022-12-25T10:59:50.171Z,1.98
2022-12-25T11:00:50.129Z,1.99
2022-12-25T13:23:42.278Z,1.44
2022-12-25T13:25:42.098Z,1.48
2022-12-25T13:26:42.005Z,1.23
2022-12-25T13:27:41.902Z,1.77
2022-12-25T13:28:41.814Z,1.32
2022-12-25T13:30:41.669Z,1.76
2022-12-25T13:31:41.565Z,1.63
2022-12-25T13:32:41.420Z,1.38
2022-12-25T13:33:41.271Z,1.53
2022-12-25T13:34:41.180Z,1.49
2022-12-25T13:35:41.091Z,1.38
2022-12-25T13:36:40.967Z,1.25
2022-12-25T13:37:40.872Z,1.60
2022-12-25T13:38:40.784Z,1.71
2022-12-25T13:39:40.700Z,1.36
2022-12-25T13:40:40.629Z,1.43
2022-12-25T13:41:40.557Z,1.74
2022-12-25T13:42:40.489Z,1.48
2022-12-25T13:43:40.429Z,1.60
2022-12-25T13:44:40.399Z,1.34
2022-12-25T13:45:40.341Z,1.86
2022-12-25T13:46:40.274Z,1.57
2022-12-25T13:47:40.199Z,1.42
2022-12-25T13:48:40.136Z,1.37
2022-12-25T18:38:32.924Z,1.19
2022-12-25T18:44:32.829Z,1.25
2022-12-25T18:52:49.975Z,1.21
2022-12-25T22:28:40.124Z,1.20
2022-12-25T22:29:40.157Z,1.23
2022-12-25T22:30:40.394Z,1.19
2022-12-25T22:31:46.435Z,1.10
2022-12-25T22:32:41.230Z,1.24
2022-12-25T22:33:40.212Z,1.30
2022-12-25T22:34:40.189Z,1.18
2022-12-25T22:35:40.168Z,1.18
2022-12-25T22:36:40.165Z,1.26
2022-12-25T22:37:40.169Z,1.18
2022-12-25T22:38:40.121Z,1.39
2022-12-25T22:39:40.132Z,1.20
